createdAt,value
2019-01-28T00:03:20.373Z,79.80
2019-01-28T00:06:08.100Z,79.20
2019-01-28T00:08:48.554Z,80.10
2019-01-28T00:11:35.954Z,79.10
2019-01-28T00:14:16.464Z,78.60
2019-01-28T00:17:03.845Z,79.40
2019-01-28T00:19:45.322Z,80.50
2019-01-28T00:22:32.740Z,80.50
2019-01-28T00:25:13.350Z,81.00
2019-01-28T00:27:53.407Z,80.80
2019-01-28T00:30:21.269Z,80.20
2019-01-28T00:33:02.223Z,80.30
2019-01-28T00:35:49.584Z,80.10
2019-01-28T00:38:30.143Z,80.10
2019-01-28T00:41:11.004Z,80.00
2019-01-28T00:43:58.359Z,79.20
2019-01-28T00:46:39.530Z,79.10
2019-01-28T00:49:20.722Z,78.40
2019-01-28T00:51:48.761Z,78.00
2019-01-28T00:54:19.737Z,78.20
2019-01-28T00:56:47.730Z,77.80
2019-01-28T00:59:35.316Z,78.00
2019-01-28T01:02:15.799Z,78.00
2019-01-28T01:05:03.489Z,77.70
2019-01-28T01:07:44.166Z,77.60
2019-01-28T01:10:31.734Z,77.70
2019-01-28T01:13:14.137Z,76.90
2019-01-28T01:16:01.726Z,77.30
2019-01-28T01:18:29.625Z,77.00
2019-01-28T01:21:17.078Z,76.60
2019-01-28T01:23:57.522Z,76.10
2019-01-28T01:26:44.954Z,76.30
2019-01-28T01:29:25.903Z,75.10
2019-01-28T01:31:53.890Z,74.60
2019-01-28T01:34:34.833Z,74.70
2019-01-28T01:37:22.289Z,76.00
2019-01-28T01:39:50.241Z,75.60
2019-01-28T01:42:18.209Z,76.00
2019-01-28T01:44:46.165Z,75.30
2019-01-28T01:47:33.593Z,75.70
2019-01-28T01:50:01.548Z,74.80
2019-01-28T01:52:29.445Z,75.10
2019-01-28T01:54:57.607Z,75.40
2019-01-28T01:57:38.626Z,74.80
2019-01-28T02:00:26.527Z,74.50
2019-01-28T02:03:07.596Z,73.70
2019-01-28T02:05:55.223Z,73.50
2019-01-28T02:08:23.259Z,72.50
2019-01-28T02:10:53.135Z,72.20
2019-01-28T02:13:34.892Z,71.70
2019-01-28T02:16:22.303Z,70.70
2019-01-28T02:19:03.263Z,71.10
2019-01-28T02:21:51.097Z,71.50
2019-01-28T02:24:31.502Z,72.10
2019-01-28T02:27:18.922Z,71.70
2019-01-28T02:29:59.158Z,72.40
2019-01-28T02:32:46.641Z,72.70
2019-01-28T02:35:27.280Z,73.00
2019-01-28T02:38:14.730Z,71.80
2019-01-28T02:40:42.689Z,72.80
2019-01-28T02:43:10.582Z,72.80
2019-01-28T02:45:52.557Z,72.20
2019-01-28T02:48:24.071Z,72.00
2019-01-28T02:50:51.913Z,72.00
2019-01-28T02:53:19.797Z,73.00
2019-01-28T02:55:47.658Z,73.00
2019-01-28T02:58:28.669Z,73.30
2019-01-28T03:00:56.666Z,72.10
2019-01-28T03:03:39.476Z,72.70
2019-01-28T03:06:07.743Z,73.40
2019-01-28T03:08:48.745Z,72.70
2019-01-28T03:11:16.539Z,71.90
2019-01-28T03:13:44.432Z,72.50
2019-01-28T03:16:31.795Z,72.70
2019-01-28T03:19:13.117Z,72.80
2019-01-28T03:21:40.947Z,74.30
2019-01-28T03:24:21.404Z,76.00
2019-01-28T03:27:08.735Z,76.20
2019-01-28T03:29:49.522Z,75.90
2019-01-28T03:32:36.891Z,76.00
2019-01-28T03:35:17.183Z,76.20
2019-01-28T03:38:04.535Z,75.80
2019-01-28T03:40:43.474Z,75.30
2019-01-28T03:43:31.127Z,75.30
2019-01-28T03:46:11.539Z,76.10
2019-01-28T03:48:58.958Z,76.20
2019-01-28T03:51:39.819Z,76.40
2019-01-28T03:54:27.199Z,75.70
2019-01-28T03:57:07.535Z,76.70
2019-01-28T03:59:49.467Z,76.20
2019-01-28T04:02:36.825Z,76.70
2019-01-28T04:05:16.771Z,76.40
2019-01-28T04:08:04.124Z,76.30
2019-01-28T04:10:45.066Z,76.10
2019-01-28T04:13:32.414Z,77.10
2019-01-28T04:16:12.850Z,76.90
2019-01-28T04:18:54.021Z,77.40
2019-01-28T04:21:21.858Z,78.10
2019-01-28T04:23:49.773Z,77.30
2019-01-28T04:26:37.276Z,78.20
2019-01-28T04:29:18.279Z,77.70
2019-01-28T04:32:05.682Z,78.00
2019-01-28T04:34:46.392Z,77.40
2019-01-28T04:37:33.729Z,77.90
2019-01-28T04:40:15.475Z,77.90
2019-01-28T04:43:06.415Z,77.90
2019-01-28T04:45:34.258Z,76.80
2019-01-28T04:48:21.578Z,75.90
2019-01-28T04:51:03.684Z,74.80
2019-01-28T04:53:51.065Z,76.20
2019-01-28T04:56:31.890Z,78.30
2019-01-28T04:59:19.379Z,79.30
2019-01-28T05:01:49.200Z,79.60
2019-01-28T05:04:29.617Z,80.60
2019-01-28T05:07:17.443Z,80.40
2019-01-28T05:09:59.369Z,80.30
2019-01-28T05:12:46.978Z,80.90
2019-01-28T05:15:28.484Z,79.90
2019-01-28T05:18:15.849Z,78.90
2019-01-28T05:20:56.911Z,77.30
2019-01-28T05:23:44.404Z,77.40
2019-01-28T05:26:12.336Z,76.90
2019-01-28T05:28:59.671Z,75.50
2019-01-28T05:31:40.275Z,74.50
2019-01-28T05:34:27.629Z,75.50
2019-01-28T05:37:06.126Z,73.80
2019-01-28T05:39:46.524Z,73.60
2019-01-28T05:42:26.868Z,73.80
2019-01-28T05:45:07.472Z,72.70
2019-01-28T05:47:54.809Z,73.20
2019-01-28T05:50:35.476Z,73.50
2019-01-28T05:53:22.864Z,72.30
2019-01-28T05:56:03.298Z,73.60
2019-01-28T05:58:50.718Z,74.40
2019-01-28T06:01:31.127Z,73.40
2019-01-28T06:04:18.487Z,73.80
2019-01-28T06:06:58.501Z,73.60
2019-01-28T06:09:47.020Z,73.10
2019-01-28T06:12:28.228Z,74.80
2019-01-28T06:15:15.702Z,75.60
2019-01-28T06:18:16.217Z,75.60
2019-01-28T06:20:57.292Z,75.20
2019-01-28T06:23:45.455Z,74.80
2019-01-28T06:26:25.727Z,73.90
2019-01-28T06:29:13.049Z,74.90
2019-01-28T06:31:53.802Z,76.10
2019-01-28T06:34:41.168Z,76.10
2019-01-28T06:37:09.076Z,75.50
2019-01-28T06:39:51.296Z,78.30
2019-01-28T06:42:19.488Z,80.80
2019-01-28T06:45:08.411Z,82.40
2019-01-28T06:47:50.305Z,82.90
2019-01-28T06:50:37.712Z,82.30
2019-01-28T06:53:16.216Z,82.50
2019-01-28T06:55:56.691Z,82.70
2019-01-28T06:58:44.056Z,84.10
2019-01-28T07:01:24.430Z,84.60
2019-01-28T07:04:11.812Z,85.20
2019-01-28T07:06:52.191Z,85.80
2019-01-28T07:09:39.544Z,89.70
2019-01-28T07:12:20.117Z,90.90
2019-01-28T07:15:08.665Z,91.70
2019-01-28T07:17:54.723Z,91.90
2019-01-28T07:20:38.474Z,92.10
2019-01-28T07:23:06.387Z,92.20
2019-01-28T07:25:53.744Z,92.50
2019-01-28T07:28:33.780Z,92.60
2019-01-28T07:31:13.835Z,92.70
2019-01-28T07:34:01.181Z,93.00
2019-01-28T07:36:41.369Z,93.40
2019-01-28T07:39:19.841Z,93.30
2019-01-28T07:42:07.217Z,93.30
2019-01-28T07:44:47.588Z,93.40
2019-01-28T07:47:28.797Z,93.60
2019-01-28T07:50:09.519Z,93.40
2019-01-28T07:52:56.898Z,93.60
2019-01-28T07:55:37.724Z,93.80
2019-01-28T07:58:25.087Z,93.90
2019-01-28T08:01:06.881Z,93.70
2019-01-28T08:03:54.237Z,94.00
2019-01-28T08:06:34.443Z,93.70
2019-01-28T08:09:21.791Z,93.50
2019-01-28T08:12:02.558Z,93.30
2019-01-28T08:14:49.989Z,93.20
2019-01-28T08:17:30.153Z,93.20
2019-01-28T08:20:18.080Z,93.00
2019-01-28T08:22:59.335Z,93.00
2019-01-28T08:25:46.715Z,92.80
2019-01-28T08:28:28.391Z,92.70
2019-01-28T08:34:10.084Z,92.60
2019-01-28T08:36:51.300Z,92.00
2019-01-28T08:39:19.179Z,91.80
2019-01-28T08:41:47.018Z,92.10
2019-01-28T08:44:27.386Z,92.10
2019-01-28T08:47:14.776Z,91.80
2019-01-28T08:49:42.557Z,91.90
2019-01-28T08:52:29.894Z,92.30
2019-01-28T08:55:14.466Z,92.50
2019-01-28T08:58:01.188Z,92.00
2019-01-28T09:00:42.795Z,92.70
2019-01-28T09:03:30.253Z,92.50
2019-01-28T09:06:11.035Z,92.80
2019-01-28T09:08:58.379Z,92.90
2019-01-28T09:11:26.382Z,93.40
2019-01-28T09:13:56.310Z,93.20
2019-01-28T09:16:37.213Z,93.80
2019-01-28T09:22:34.377Z,93.40
2019-01-28T09:25:20.219Z,93.40
2019-01-28T09:27:48.272Z,93.50
2019-01-28T09:30:35.662Z,93.90
2019-01-28T09:33:17.747Z,94.20
2019-01-28T09:36:05.124Z,94.00
2019-01-28T09:38:46.076Z,94.10
2019-01-28T09:41:26.214Z,94.50
2019-01-28T09:44:13.637Z,94.60
2019-01-28T09:46:55.257Z,94.60
2019-01-28T09:49:42.658Z,94.70
2019-01-28T09:52:24.682Z,95.10
2019-01-28T09:54:52.637Z,95.10
2019-01-28T09:57:33.698Z,94.90
2019-01-28T10:00:44.780Z,95.20
2019-01-28T10:03:24.976Z,95.20
2019-01-28T10:06:12.353Z,95.20
2019-01-28T10:08:53.240Z,95.20
2019-01-28T10:11:33.557Z,95.30
2019-01-28T10:14:14.670Z,95.00
2019-01-28T10:16:54.832Z,95.20
2019-01-28T10:19:42.227Z,95.00
2019-01-28T10:22:23.128Z,95.00
2019-01-28T10:25:10.602Z,95.20
2019-01-28T10:27:52.161Z,95.60
2019-01-28T10:30:24.731Z,95.10
2019-01-28T10:33:09.906Z,95.30
2019-01-28T10:35:59.443Z,95.10
2019-01-28T10:38:27.504Z,95.30
2019-01-28T10:40:55.559Z,95.10
2019-01-28T10:43:23.471Z,95.10
2019-01-28T10:45:51.453Z,94.90
2019-01-28T10:48:19.393Z,94.90
2019-01-28T10:51:06.830Z,94.80
2019-01-28T10:53:46.886Z,94.80
2019-01-28T10:56:34.276Z,94.50
2019-01-28T10:59:14.325Z,94.60
2019-01-28T11:02:01.719Z,94.80
2019-01-28T11:04:42.753Z,94.60
2019-01-28T11:07:30.286Z,94.40
2019-01-28T11:10:12.398Z,94.20
2019-01-28T11:12:59.755Z,94.50
2019-01-28T11:15:40.001Z,94.40
2019-01-28T11:18:29.152Z,94.10
2019-01-28T11:21:10.008Z,94.20
2019-01-28T11:23:50.969Z,94.20
2019-01-28T11:26:18.921Z,94.10
2019-01-28T11:28:59.178Z,94.30
2019-01-28T11:31:46.741Z,94.60
2019-01-28T11:34:27.173Z,94.50
2019-01-28T11:37:14.624Z,94.70
2019-01-28T11:39:55.055Z,94.90
2019-01-28T11:42:23.057Z,95.00
2019-01-28T11:44:51.165Z,95.30
2019-01-28T11:47:19.104Z,95.10
2019-01-28T11:50:00.022Z,95.40
2019-01-28T11:52:47.416Z,95.50
2019-01-28T11:55:28.851Z,95.50
2019-01-28T11:58:16.284Z,95.50
2019-01-28T12:04:12.389Z,95.60
2019-01-28T12:06:54.417Z,95.10
2019-01-28T12:09:22.553Z,95.40
2019-01-28T12:11:50.486Z,95.10
2019-01-28T12:14:18.408Z,94.80
2019-01-28T12:16:46.503Z,94.20
2019-01-28T12:19:14.641Z,94.30
2019-01-28T12:21:42.607Z,94.00
2019-01-28T12:24:10.562Z,94.10
2019-01-28T12:26:38.480Z,93.90
2019-01-28T12:29:06.468Z,94.00
2019-01-28T12:31:58.494Z,94.20
2019-01-28T12:34:26.490Z,94.10
2019-01-28T12:37:07.336Z,93.60
2019-01-28T12:39:54.773Z,93.60
2019-01-28T12:42:35.471Z,93.30
2019-01-28T12:45:22.938Z,93.30
2019-01-28T12:48:03.504Z,93.00
2019-01-28T12:50:45.376Z,92.40
2019-01-28T12:53:13.266Z,92.90
2019-01-28T12:55:55.498Z,92.80
2019-01-28T12:58:23.425Z,92.70
2019-01-28T13:00:55.548Z,92.70
2019-01-28T13:03:36.759Z,92.40
2019-01-28T13:06:04.766Z,92.30
2019-01-28T13:08:32.754Z,92.20
2019-01-28T13:11:01.829Z,91.90
2019-01-28T13:13:29.776Z,91.70
2019-01-28T13:15:57.742Z,91.10
2019-01-28T13:18:25.719Z,90.50
2019-01-28T13:21:15.095Z,90.70
2019-01-28T13:23:55.400Z,90.80
2019-01-28T13:26:42.859Z,90.70
2019-01-28T13:29:23.707Z,90.90
2019-01-28T13:32:12.322Z,91.10
2019-01-28T13:34:53.983Z,90.40
2019-01-28T13:37:22.104Z,90.20
2019-01-28T13:40:03.750Z,90.40
2019-01-28T13:42:51.170Z,90.30
2019-01-28T13:45:19.229Z,90.40
2019-01-28T13:47:49.065Z,90.40
2019-01-28T13:50:20.189Z,90.80
2019-01-28T13:53:07.703Z,90.30
2019-01-28T13:55:35.632Z,90.40
2019-01-28T13:58:03.891Z,90.40
2019-01-28T14:00:31.954Z,90.40
2019-01-28T14:03:21.212Z,90.40
2019-01-28T14:05:49.183Z,90.40
2019-01-28T14:08:36.557Z,90.30
2019-01-28T14:11:17.580Z,90.10
2019-01-28T14:14:05.084Z,88.80
2019-01-28T14:16:45.782Z,90.00
2019-01-28T14:19:33.224Z,89.30
2019-01-28T14:22:01.143Z,88.60
2019-01-28T14:24:48.592Z,87.50
2019-01-28T14:27:29.010Z,86.60
2019-01-28T14:30:42.104Z,86.00
2019-01-28T14:33:22.218Z,86.70
2019-01-28T14:35:50.195Z,84.50
2019-01-28T14:38:18.248Z,84.40
2019-01-28T14:40:47.393Z,85.00
2019-01-28T14:43:29.125Z,83.50
2019-01-28T14:45:57.167Z,83.80
2019-01-28T14:48:25.124Z,83.80
2019-01-28T14:51:07.323Z,82.80
2019-01-28T14:53:54.782Z,82.80
2019-01-28T14:56:34.985Z,81.20
2019-01-28T14:59:22.382Z,82.20
2019-01-28T15:02:03.863Z,81.10
2019-01-28T15:04:51.343Z,81.50
2019-01-28T15:07:33.406Z,82.70
2019-01-28T15:10:14.612Z,83.40
2019-01-28T15:13:02.041Z,82.70
2019-01-28T15:15:42.482Z,82.50
2019-01-28T15:18:30.012Z,83.00
2019-01-28T15:21:10.619Z,82.10
2019-01-28T15:23:58.391Z,82.80
2019-01-28T15:26:40.548Z,82.10
2019-01-28T15:29:28.033Z,81.50
2019-01-28T15:32:08.832Z,80.30
2019-01-28T15:34:56.648Z,81.60
2019-01-28T15:37:37.167Z,81.30
2019-01-28T15:40:26.849Z,80.50
2019-01-28T15:43:07.378Z,81.60
2019-01-28T15:45:55.092Z,80.70
2019-01-28T15:48:38.042Z,81.50
2019-01-28T15:51:20.064Z,78.30
2019-01-28T15:54:07.442Z,77.60
2019-01-28T15:56:48.311Z,77.40
2019-01-28T15:59:35.756Z,76.60
2019-01-28T16:02:16.409Z,77.20
2019-01-28T16:04:44.508Z,75.50
2019-01-28T16:07:12.627Z,76.20
2019-01-28T16:10:00.288Z,73.90
2019-01-28T16:12:40.547Z,71.10
2019-01-28T16:15:50.631Z,71.20
2019-01-28T16:18:34.381Z,70.40
2019-01-28T16:21:13.531Z,68.50
2019-01-28T16:24:01.097Z,68.30
2019-01-28T16:26:41.831Z,67.90
2019-01-28T16:29:09.855Z,67.30
2019-01-28T16:31:37.867Z,66.80
2019-01-28T16:34:25.343Z,66.70
2019-01-28T16:37:05.695Z,65.50
2019-01-28T16:39:53.177Z,67.20
2019-01-28T16:42:35.566Z,67.20
2019-01-28T16:45:23.061Z,66.70
2019-01-28T16:48:04.646Z,67.30
2019-01-28T16:50:46.347Z,67.60
2019-01-28T16:53:33.805Z,68.10
2019-01-28T16:56:14.220Z,68.60
2019-01-28T16:58:54.654Z,69.20
2019-01-28T17:01:22.606Z,69.50
2019-01-28T17:04:11.122Z,68.90
2019-01-28T17:06:48.287Z,68.70
2019-01-28T17:09:16.334Z,67.80
2019-01-28T17:11:44.296Z,67.70
2019-01-28T17:14:31.766Z,68.50
2019-01-28T17:17:12.224Z,67.40
2019-01-28T17:19:59.676Z,67.00
2019-01-28T17:22:40.848Z,66.40
2019-01-28T17:25:31.523Z,67.50
2019-01-28T17:28:11.745Z,66.70
2019-01-28T17:30:59.208Z,66.10
2019-01-28T17:33:40.111Z,66.10
2019-01-28T17:36:27.676Z,66.60
2019-01-28T17:39:08.310Z,66.80
2019-01-28T17:41:57.125Z,66.50
2019-01-28T17:44:38.485Z,67.90
2019-01-28T17:47:26.008Z,68.90
2019-01-28T17:50:07.105Z,69.20
2019-01-28T17:52:47.234Z,69.20
2019-01-28T17:55:34.822Z,69.30
2019-01-28T17:58:15.945Z,69.00
2019-01-28T18:01:03.501Z,68.70
2019-01-28T18:03:43.762Z,68.50
2019-01-28T18:06:31.261Z,69.30
2019-01-28T18:09:11.994Z,68.40
2019-01-28T18:11:59.504Z,68.20
2019-01-28T18:14:40.060Z,67.30
2019-01-28T18:17:27.501Z,68.60
2019-01-28T18:20:09.343Z,68.90
2019-01-28T18:22:52.042Z,68.70
2019-01-28T18:25:39.519Z,68.70
2019-01-28T18:28:19.943Z,67.00
2019-01-28T18:31:07.377Z,67.00
2019-01-28T18:33:48.134Z,66.20
2019-01-28T18:36:35.731Z,66.50
2019-01-28T18:39:25.211Z,65.30
2019-01-28T18:41:53.320Z,64.50
2019-01-28T18:44:32.003Z,64.50
2019-01-28T18:47:19.445Z,64.40
2019-01-28T18:50:04.720Z,64.30
2019-01-28T18:52:32.751Z,64.40
2019-01-28T18:55:13.561Z,63.80
2019-01-28T18:58:01.200Z,64.00
2019-01-28T19:00:42.656Z,63.80
2019-01-28T19:03:30.382Z,64.30
2019-01-28T19:06:18.038Z,63.80
2019-01-28T19:09:17.828Z,64.00
2019-01-28T19:12:25.117Z,65.00
2019-01-28T19:15:12.927Z,64.20
2019-01-28T19:18:11.447Z,62.90
2019-01-28T19:20:59.148Z,63.30
2019-01-28T19:23:46.774Z,62.80
2019-01-28T19:26:27.248Z,62.40
2019-01-28T19:29:08.240Z,63.00
2019-01-28T19:31:56.147Z,63.40
2019-01-28T19:34:36.340Z,63.60
2019-01-28T19:37:23.857Z,64.50
2019-01-28T19:40:05.064Z,65.00
2019-01-28T19:42:52.649Z,65.00
2019-01-28T19:45:33.673Z,65.90
2019-01-28T19:48:21.143Z,65.40
2019-01-28T19:51:01.720Z,65.40
2019-01-28T19:53:49.263Z,64.70
2019-01-28T19:56:30.061Z,64.80
2019-01-28T19:59:17.634Z,65.40
2019-01-28T20:01:58.506Z,63.10
2019-01-28T20:04:39.242Z,63.80
2019-01-28T20:07:26.643Z,63.40
2019-01-28T20:10:07.737Z,61.10
2019-01-28T20:12:55.295Z,59.90
2019-01-28T20:15:35.792Z,60.10
2019-01-28T20:18:23.353Z,61.60
2019-01-28T20:21:05.117Z,59.80
2019-01-28T20:23:52.925Z,59.60
2019-01-28T20:26:20.998Z,59.50
2019-01-28T20:28:48.942Z,59.80
2019-01-28T20:31:17.048Z,60.00
2019-01-28T20:34:07.233Z,59.60
2019-01-28T20:36:35.456Z,58.10
2019-01-28T20:39:22.986Z,57.50
2019-01-28T20:42:04.014Z,56.40
2019-01-28T20:44:45.118Z,57.00
2019-01-28T20:47:32.650Z,56.40
2019-01-28T20:50:14.854Z,56.10
2019-01-28T20:53:02.382Z,55.00
2019-01-28T20:55:41.051Z,55.80
2019-01-28T20:58:28.548Z,55.90
2019-01-28T21:01:08.815Z,54.60
2019-01-28T21:03:56.363Z,53.80
2019-01-28T21:06:36.879Z,53.90
2019-01-28T21:09:24.414Z,53.40
2019-01-28T21:12:05.043Z,53.80
2019-01-28T21:14:52.620Z,53.20
2019-01-28T21:17:33.363Z,53.80
2019-01-28T21:20:21.336Z,54.00
2019-01-28T21:23:01.629Z,54.00
2019-01-28T21:25:50.164Z,54.20
2019-01-28T21:28:30.589Z,54.10
2019-01-28T21:31:18.330Z,54.70
2019-01-28T21:33:58.844Z,55.00
2019-01-28T21:39:59.433Z,56.10
2019-01-28T21:42:40.350Z,56.60
2019-01-28T21:45:21.274Z,57.10
2019-01-28T21:48:08.835Z,57.50
2019-01-28T21:50:50.252Z,57.30
2019-01-28T21:53:37.712Z,57.40
2019-01-28T21:56:18.671Z,57.60
2019-01-28T21:59:06.168Z,57.30
2019-01-28T22:01:46.397Z,57.60
2019-01-28T22:04:33.896Z,57.10
2019-01-28T22:07:14.308Z,57.10
2019-01-28T22:10:01.690Z,57.20
2019-01-28T22:12:42.900Z,57.50
2019-01-28T22:15:30.642Z,57.70
2019-01-28T22:18:11.227Z,58.10
2019-01-28T22:20:58.627Z,58.20
2019-01-28T22:23:39.416Z,58.20
2019-01-28T22:26:26.832Z,58.60
2019-01-28T22:29:07.639Z,60.10
2019-01-28T22:31:55.096Z,65.50
2019-01-28T22:34:23.023Z,71.80
2019-01-28T22:37:10.524Z,73.40
2019-01-28T22:39:51.240Z,74.70
2019-01-28T22:42:21.438Z,74.30
2019-01-28T22:45:22.399Z,73.60
2019-01-28T22:48:09.816Z,73.70
2019-01-28T22:50:37.731Z,72.40
2019-01-28T22:53:05.587Z,72.20
2019-01-28T22:55:33.525Z,71.20
2019-01-28T22:58:20.948Z,71.50
2019-01-28T23:01:06.678Z,70.50
2019-01-28T23:03:47.299Z,70.90
2019-01-28T23:06:34.720Z,70.10
2019-01-28T23:09:15.548Z,69.80
2019-01-28T23:12:03.023Z,69.60
2019-01-28T23:14:45.803Z,68.70
2019-01-28T23:17:33.219Z,68.50
2019-01-28T23:20:13.931Z,68.70
2019-01-28T23:22:53.983Z,68.40
2019-01-28T23:25:41.392Z,68.60
2019-01-28T23:28:22.210Z,67.60
2019-01-28T23:31:10.669Z,66.20
2019-01-28T23:33:51.517Z,66.10
2019-01-28T23:36:38.959Z,65.30
2019-01-28T23:39:19.114Z,65.10
2019-01-28T23:42:06.822Z,65.20
2019-01-28T23:44:47.298Z,65.20
2019-01-28T23:47:34.715Z,64.80
2019-01-28T23:50:15.272Z,64.70
2019-01-28T23:53:02.654Z,64.70
2019-01-28T23:55:43.587Z,64.90
2019-01-28T23:58:24.385Z,65.00
